Benton Harbor, Michigan
Current Conditions -  °F | °C
As of 3:53 AM on Monday 20 Oct 2014 (Local Time) from KBEH Reporting Station
Overcast Overcast  
Wind Chill: 45°   Ceiling: 7000
Heat Index: 49°   Visibility: 10mi
Dew Point: 45°   Wind: 8mph
Humidity: 86%   Direction: 190°S
Pressure: 29.86"   Gusts: NA
Location:  42.12°N, 86.46°W
Report Text: KBEH 200753Z AUTO 19007KT 10SM OVC070 09/07 A2986 RMK AO2 SLP113 T00940072
Loading
Personal Weather Stations






























Interactive Weather Map
Tropical Storm Tracking
New forecast layout! Learn more

10-Day Weather Forecast

Advertisements
Track Severe Weather on mobile